sensor_id;sensor_type;location;lat;lon;timestamp;pressure;altitude;pressure_sealevel;temperature;humidity
21828;BME280;11076;47.942;11.804;2023-05-21T00:04:52;94004.38;;;11.70;98.74
21828;BME280;11076;47.942;11.804;2023-05-21T00:09:54;94007.38;;;11.62;98.66
21828;BME280;11076;47.942;11.804;2023-05-21T00:14:58;93998.31;;;11.63;98.35
21828;BME280;11076;47.942;11.804;2023-05-21T00:20:01;93990.72;;;11.71;97.22
21828;BME280;11076;47.942;11.804;2023-05-21T00:25:07;93997.72;;;11.72;96.78
21828;BME280;11076;47.942;11.804;2023-05-21T00:30:10;93990.41;;;11.68;95.67
21828;BME280;11076;47.942;11.804;2023-05-21T00:35:13;93989.94;;;11.59;95.28
21828;BME280;11076;47.942;11.804;2023-05-21T00:40:17;93988.19;;;11.53;95.56
21828;BME280;11076;47.942;11.804;2023-05-21T00:45:20;93993.78;;;11.40;95.99
21828;BME280;11076;47.942;11.804;2023-05-21T00:50:25;93990.41;;;11.44;95.72
21828;BME280;11076;47.942;11.804;2023-05-21T00:55:27;93984.56;;;11.59;95.28
21828;BME280;11076;47.942;11.804;2023-05-21T01:00:33;93972.13;;;11.53;95.09
21828;BME280;11076;47.942;11.804;2023-05-21T01:05:37;93976.31;;;11.49;94.73
21828;BME280;11076;47.942;11.804;2023-05-21T01:10:39;93968.31;;;11.37;94.78
21828;BME280;11076;47.942;11.804;2023-05-21T01:15:45;93965.50;;;11.32;94.70
21828;BME280;11076;47.942;11.804;2023-05-21T01:20:47;93971.47;;;11.22;94.66
21828;BME280;11076;47.942;11.804;2023-05-21T01:25:50;93967.84;;;11.17;95.09
21828;BME280;11076;47.942;11.804;2023-05-21T01:30:53;93965.38;;;11.03;95.55
21828;BME280;11076;47.942;11.804;2023-05-21T01:36:08;93967.69;;;10.88;96.70
21828;BME280;11076;47.942;11.804;2023-05-21T01:41:17;93968.59;;;10.70;96.93
21828;BME280;11076;47.942;11.804;2023-05-21T01:46:22;93966.19;;;10.68;96.75
21828;BME280;11076;47.942;11.804;2023-05-21T01:51:26;93964.91;;;10.71;96.48
21828;BME280;11076;47.942;11.804;2023-05-21T01:56:29;93954.56;;;10.86;96.22
21828;BME280;11076;47.942;11.804;2023-05-21T02:01:34;93948.88;;;10.83;95.58
21828;BME280;11076;47.942;11.804;2023-05-21T02:06:37;93954.19;;;10.71;96.40
21828;BME280;11076;47.942;11.804;2023-05-21T02:11:40;93954.28;;;10.64;96.60
21828;BME280;11076;47.942;11.804;2023-05-21T02:16:43;93953.94;;;10.61;96.59
21828;BME280;11076;47.942;11.804;2023-05-21T02:21:45;93958.38;;;10.67;96.52
21828;BME280;11076;47.942;11.804;2023-05-21T02:26:48;93952.31;;;10.60;96.34
21828;BME280;11076;47.942;11.804;2023-05-21T02:31:51;93947.88;;;10.53;96.84
21828;BME280;11076;47.942;11.804;2023-05-21T02:36:53;93954.59;;;10.44;97.84
21828;BME280;11076;47.942;11.804;2023-05-21T02:41:56;93944.19;;;10.54;96.87
21828;BME280;11076;47.942;11.804;2023-05-21T02:46:58;93946.59;;;10.56;96.13
21828;BME280;11076;47.942;11.804;2023-05-21T02:52:01;93942.78;;;10.64;95.16
21828;BME280;11076;47.942;11.804;2023-05-21T02:57:03;93942.69;;;10.59;94.81
21828;BME280;11076;47.942;11.804;2023-05-21T03:02:06;93941.16;;;10.63;93.25
21828;BME280;11076;47.942;11.804;2023-05-21T03:07:08;93949.75;;;10.53;93.36
21828;BME280;11076;47.942;11.804;2023-05-21T03:12:11;93940.19;;;10.45;93.34
21828;BME280;11076;47.942;11.804;2023-05-21T03:17:14;93947.41;;;10.45;93.53
21828;BME280;11076;47.942;11.804;2023-05-21T03:22:18;93949.25;;;10.44;93.72
21828;BME280;11076;47.942;11.804;2023-05-21T03:27:21;93941.75;;;10.23;94.37
21828;BME280;11076;47.942;11.804;2023-05-21T03:32:24;93955.84;;;10.11;95.79
21828;BME280;11076;47.942;11.804;2023-05-21T03:37:28;93939.72;;;10.18;95.49
21828;BME280;11076;47.942;11.804;2023-05-21T03:42:30;93939.66;;;10.25;95.30
21828;BME280;11076;47.942;11.804;2023-05-21T03:47:33;93943.19;;;10.37;95.78
21828;BME280;11076;47.942;11.804;2023-05-21T03:52:40;93945.53;;;10.45;94.91
21828;BME280;11076;47.942;11.804;2023-05-21T03:57:42;93954.50;;;10.51;94.71
21828;BME280;11076;47.942;11.804;2023-05-21T04:02:45;93949.63;;;10.60;94.61
21828;BME280;11076;47.942;11.804;2023-05-21T04:07:50;93946.53;;;11.10;92.04
21828;BME280;11076;47.942;11.804;2023-05-21T04:12:53;93948.16;;;11.58;87.88
21828;BME280;11076;47.942;11.804;2023-05-21T04:17:56;93944.44;;;11.47;88.42
21828;BME280;11076;47.942;11.804;2023-05-21T04:22:59;93936.59;;;11.69;87.74
21828;BME280;11076;47.942;11.804;2023-05-21T04:28:02;93951.03;;;12.21;89.73
21828;BME280;11076;47.942;11.804;2023-05-21T04:33:06;93953.94;;;12.19;85.99
21828;BME280;11076;47.942;11.804;2023-05-21T04:38:09;93950.06;;;12.27;84.85
21828;BME280;11076;47.942;11.804;2023-05-21T04:43:11;93960.97;;;12.37;84.55
21828;BME280;11076;47.942;11.804;2023-05-21T04:48:14;93960.69;;;12.50;84.36
21828;BME280;11076;47.942;11.804;2023-05-21T04:53:16;93951.28;;;12.65;84.39
21828;BME280;11076;47.942;11.804;2023-05-21T04:58:19;93942.19;;;13.00;82.88
21828;BME280;11076;47.942;11.804;2023-05-21T05:03:22;93957.72;;;13.31;81.46
21828;BME280;11076;47.942;11.804;2023-05-21T05:08:24;93953.56;;;13.41;82.04
21828;BME280;11076;47.942;11.804;2023-05-21T05:13:27;93951.44;;;13.43;82.37
21828;BME280;11076;47.942;11.804;2023-05-21T05:18:30;93946.53;;;13.57;82.94
21828;BME280;11076;47.942;11.804;2023-05-21T05:23:32;93952.50;;;13.81;81.83
21828;BME280;11076;47.942;11.804;2023-05-21T05:28:35;93947.75;;;13.88;81.86
21828;BME280;11076;47.942;11.804;2023-05-21T05:33:37;93952.22;;;14.04;81.53
21828;BME280;11076;47.942;11.804;2023-05-21T05:38:41;93950.47;;;14.37;80.99
21828;BME280;11076;47.942;11.804;2023-05-21T05:43:45;93945.81;;;14.55;79.81
21828;BME280;11076;47.942;11.804;2023-05-21T05:48:49;93943.38;;;14.80;78.77
21828;BME280;11076;47.942;11.804;2023-05-21T05:53:51;93951.00;;;14.88;78.16
21828;BME280;11076;47.942;11.804;2023-05-21T05:58:54;93945.63;;;14.94;77.68
21828;BME280;11076;47.942;11.804;2023-05-21T06:03:58;93936.53;;;15.00;77.21
21828;BME280;11076;47.942;11.804;2023-05-21T06:09:00;93946.88;;;15.13;76.62
21828;BME280;11076;47.942;11.804;2023-05-21T06:14:03;93945.47;;;15.05;74.22
21828;BME280;11076;47.942;11.804;2023-05-21T06:19:05;93953.13;;;14.86;73.90
21828;BME280;11076;47.942;11.804;2023-05-21T06:24:08;93949.66;;;14.91;73.31
21828;BME280;11076;47.942;11.804;2023-05-21T06:29:10;93954.81;;;14.98;72.67
21828;BME280;11076;47.942;11.804;2023-05-21T06:34:14;93953.84;;;15.09;72.98
21828;BME280;11076;47.942;11.804;2023-05-21T06:39:17;93949.00;;;15.11;72.39
21828;BME280;11076;47.942;11.804;2023-05-21T06:44:19;93956.66;;;15.24;73.08
21828;BME280;11076;47.942;11.804;2023-05-21T06:49:42;93968.84;;;15.37;72.25
21828;BME280;11076;47.942;11.804;2023-05-21T06:54:44;93967.06;;;15.53;71.59
21828;BME280;11076;47.942;11.804;2023-05-21T06:59:47;93967.25;;;15.79;71.06
21828;BME280;11076;47.942;11.804;2023-05-21T07:04:49;93975.97;;;15.96;70.37
21828;BME280;11076;47.942;11.804;2023-05-21T07:09:55;93980.94;;;16.20;70.02
21828;BME280;11076;47.942;11.804;2023-05-21T07:14:57;93981.03;;;16.50;68.41
21828;BME280;11076;47.942;11.804;2023-05-21T07:20:01;93965.72;;;16.72;67.82
21828;BME280;11076;47.942;11.804;2023-05-21T07:25:05;93966.88;;;17.01;66.70
21828;BME280;11076;47.942;11.804;2023-05-21T07:30:08;93962.56;;;17.31;64.15
21828;BME280;11076;47.942;11.804;2023-05-21T07:35:11;93960.56;;;17.98;62.85
21828;BME280;11076;47.942;11.804;2023-05-21T07:40:14;93965.22;;;18.47;62.12
21828;BME280;11076;47.942;11.804;2023-05-21T07:45:17;93959.53;;;19.04;61.07
21828;BME280;11076;47.942;11.804;2023-05-21T07:50:20;93950.63;;;19.91;59.87
21828;BME280;11076;47.942;11.804;2023-05-21T07:55:23;93952.31;;;20.78;58.07
21828;BME280;11076;47.942;11.804;2023-05-21T08:00:26;93951.53;;;21.30;56.13
21828;BME280;11076;47.942;11.804;2023-05-21T08:05:31;93954.88;;;21.59;54.44
21828;BME280;11076;47.942;11.804;2023-05-21T08:10:34;93957.13;;;21.71;54.23
21828;BME280;11076;47.942;11.804;2023-05-21T08:15:37;93959.06;;;21.71;51.98
21828;BME280;11076;47.942;11.804;2023-05-21T08:20:40;93962.19;;;21.78;50.71
21828;BME280;11076;47.942;11.804;2023-05-21T08:25:43;93958.25;;;21.84;50.35
21828;BME280;11076;47.942;11.804;2023-05-21T08:30:45;93968.94;;;21.94;50.29
21828;BME280;11076;47.942;11.804;2023-05-21T08:35:49;93971.88;;;21.84;49.86
21828;BME280;11076;47.942;11.804;2023-05-21T08:41:00;93975.72;;;21.97;51.37
21828;BME280;11076;47.942;11.804;2023-05-21T08:46:04;93962.78;;;21.75;51.85
21828;BME280;11076;47.942;11.804;2023-05-21T08:51:10;93973.34;;;21.76;51.65
21828;BME280;11076;47.942;11.804;2023-05-21T08:56:20;93978.56;;;22.05;52.57
21828;BME280;11076;47.942;11.804;2023-05-21T09:01:27;93972.16;;;22.43;50.63
21828;BME280;11076;47.942;11.804;2023-05-21T09:06:39;93973.66;;;22.63;48.85
21828;BME280;11076;47.942;11.804;2023-05-21T09:11:43;93978.41;;;22.43;49.44
21828;BME280;11076;47.942;11.804;2023-05-21T09:16:47;93980.41;;;22.52;51.60
21828;BME280;11076;47.942;11.804;2023-05-21T09:21:51;93981.91;;;22.72;50.53
21828;BME280;11076;47.942;11.804;2023-05-21T09:26:57;93977.16;;;23.28;50.03
21828;BME280;11076;47.942;11.804;2023-05-21T09:32:05;93978.47;;;23.53;48.16
21828;BME280;11076;47.942;11.804;2023-05-21T09:37:10;93977.16;;;23.73;48.04
21828;BME280;11076;47.942;11.804;2023-05-21T09:42:19;93973.69;;;23.81;45.87
21828;BME280;11076;47.942;11.804;2023-05-21T09:47:22;93975.72;;;24.29;45.63
21828;BME280;11076;47.942;11.804;2023-05-21T09:52:25;93977.44;;;24.56;44.94
21828;BME280;11076;47.942;11.804;2023-05-21T09:57:28;93967.84;;;24.76;42.19
21828;BME280;11076;47.942;11.804;2023-05-21T10:02:31;93959.41;;;25.48;42.76
21828;BME280;11076;47.942;11.804;2023-05-21T10:07:40;93968.25;;;25.71;41.04
21828;BME280;11076;47.942;11.804;2023-05-21T10:12:45;93963.66;;;26.10;40.88
21828;BME280;11076;47.942;11.804;2023-05-21T10:17:48;93956.59;;;26.00;38.77
21828;BME280;11076;47.942;11.804;2023-05-21T10:22:51;93954.53;;;25.97;38.91
21828;BME280;11076;47.942;11.804;2023-05-21T10:27:54;93957.78;;;25.64;37.54
21828;BME280;11076;47.942;11.804;2023-05-21T10:32:58;93952.00;;;25.57;38.93
21828;BME280;11076;47.942;11.804;2023-05-21T10:38:03;93948.47;;;25.48;38.08
21828;BME280;11076;47.942;11.804;2023-05-21T10:48:43;93948.50;;;25.39;37.43
21828;BME280;11076;47.942;11.804;2023-05-21T10:54:07;93942.19;;;25.21;38.12
21828;BME280;11076;47.942;11.804;2023-05-21T11:04:28;93939.94;;;25.32;36.86
21828;BME280;11076;47.942;11.804;2023-05-21T11:09:30;93938.16;;;25.53;35.87
21828;BME280;11076;47.942;11.804;2023-05-21T11:14:39;93928.97;;;25.67;36.50
21828;BME280;11076;47.942;11.804;2023-05-21T11:19:45;93936.03;;;25.68;36.97
21828;BME280;11076;47.942;11.804;2023-05-21T11:24:54;93927.31;;;26.01;35.41
21828;BME280;11076;47.942;11.804;2023-05-21T11:29:57;93932.63;;;26.35;36.15
21828;BME280;11076;47.942;11.804;2023-05-21T11:35:00;93935.69;;;26.34;32.76
21828;BME280;11076;47.942;11.804;2023-05-21T11:45:21;93921.69;;;26.35;33.09
21828;BME280;11076;47.942;11.804;2023-05-21T11:50:24;93929.25;;;26.38;31.07
21828;BME280;11076;47.942;11.804;2023-05-21T11:55:26;93929.28;;;26.30;29.79
21828;BME280;11076;47.942;11.804;2023-05-21T12:00:29;93926.06;;;26.28;30.04
21828;BME280;11076;47.942;11.804;2023-05-21T12:05:48;93916.53;;;26.34;31.77
21828;BME280;11076;47.942;11.804;2023-05-21T12:10:57;93924.47;;;26.27;32.25
21828;BME280;11076;47.942;11.804;2023-05-21T12:16:01;93922.63;;;26.39;32.04
21828;BME280;11076;47.942;11.804;2023-05-21T12:21:05;93918.03;;;26.23;33.13
21828;BME280;11076;47.942;11.804;2023-05-21T12:26:08;93922.09;;;26.08;32.76
21828;BME280;11076;47.942;11.804;2023-05-21T12:31:14;93926.28;;;26.14;32.67
21828;BME280;11076;47.942;11.804;2023-05-21T12:36:29;93913.28;;;26.41;34.62
21828;BME280;11076;47.942;11.804;2023-05-21T12:41:32;93930.38;;;26.37;33.55
21828;BME280;11076;47.942;11.804;2023-05-21T12:46:35;93924.81;;;26.55;33.10
21828;BME280;11076;47.942;11.804;2023-05-21T12:51:38;93914.06;;;26.41;33.83
21828;BME280;11076;47.942;11.804;2023-05-21T12:56:44;93925.25;;;26.27;34.73
21828;BME280;11076;47.942;11.804;2023-05-21T13:01:47;93922.09;;;26.08;35.00
21828;BME280;11076;47.942;11.804;2023-05-21T13:06:49;93916.78;;;26.11;34.47
21828;BME280;11076;47.942;11.804;2023-05-21T13:11:52;93925.25;;;26.27;35.60
21828;BME280;11076;47.942;11.804;2023-05-21T13:16:54;93908.59;;;26.41;34.11
21828;BME280;11076;47.942;11.804;2023-05-21T13:21:57;93906.41;;;26.85;35.29
21828;BME280;11076;47.942;11.804;2023-05-21T13:26:59;93918.63;;;26.96;34.41
21828;BME280;11076;47.942;11.804;2023-05-21T13:32:02;93909.94;;;26.65;35.13
21828;BME280;11076;47.942;11.804;2023-05-21T13:37:04;93910.28;;;26.63;35.35
21828;BME280;11076;47.942;11.804;2023-05-21T13:42:07;93903.53;;;26.52;35.78
21828;BME280;11076;47.942;11.804;2023-05-21T13:47:09;93904.28;;;26.31;35.62
21828;BME280;11076;47.942;11.804;2023-05-21T13:52:13;93904.25;;;26.70;34.55
21828;BME280;11076;47.942;11.804;2023-05-21T13:57:15;93902.41;;;26.83;34.48
21828;BME280;11076;47.942;11.804;2023-05-21T14:02:18;93894.97;;;26.62;34.31
21828;BME280;11076;47.942;11.804;2023-05-21T14:07:20;93893.25;;;26.49;34.20
21828;BME280;11076;47.942;11.804;2023-05-21T14:12:23;93887.91;;;26.52;34.71
21828;BME280;11076;47.942;11.804;2023-05-21T14:17:25;93889.97;;;26.55;34.50
21828;BME280;11076;47.942;11.804;2023-05-21T14:22:27;93891.84;;;26.43;32.86
21828;BME280;11076;47.942;11.804;2023-05-21T14:27:30;93878.34;;;26.88;33.92
21828;BME280;11076;47.942;11.804;2023-05-21T14:32:33;93880.34;;;26.79;33.42
21828;BME280;11076;47.942;11.804;2023-05-21T14:37:36;93866.44;;;26.84;33.12
21828;BME280;11076;47.942;11.804;2023-05-21T14:42:38;93869.03;;;26.81;33.23
21828;BME280;11076;47.942;11.804;2023-05-21T14:47:41;93868.28;;;27.13;34.22
21828;BME280;11076;47.942;11.804;2023-05-21T14:52:43;93867.72;;;26.87;34.03
21828;BME280;11076;47.942;11.804;2023-05-21T14:57:46;93875.59;;;26.67;33.75
21828;BME280;11076;47.942;11.804;2023-05-21T15:02:48;93870.75;;;26.34;32.56
21828;BME280;11076;47.942;11.804;2023-05-21T15:07:50;93866.94;;;25.79;33.26
21828;BME280;11076;47.942;11.804;2023-05-21T15:12:53;93866.88;;;26.06;34.19
21828;BME280;11076;47.942;11.804;2023-05-21T15:17:55;93872.66;;;26.04;35.90
21828;BME280;11076;47.942;11.804;2023-05-21T15:22:59;93870.88;;;26.08;36.33
21828;BME280;11076;47.942;11.804;2023-05-21T15:28:10;93861.13;;;25.98;34.20
21828;BME280;11076;47.942;11.804;2023-05-21T15:33:16;93864.44;;;26.13;33.85
21828;BME280;11076;47.942;11.804;2023-05-21T15:38:18;93869.94;;;26.04;34.51
21828;BME280;11076;47.942;11.804;2023-05-21T15:43:20;93855.66;;;25.81;33.93
21828;BME280;11076;47.942;11.804;2023-05-21T15:48:23;93861.31;;;25.76;34.52
21828;BME280;11076;47.942;11.804;2023-05-21T15:53:26;93857.41;;;25.86;33.51
21828;BME280;11076;47.942;11.804;2023-05-21T15:58:28;93851.59;;;25.49;35.13
21828;BME280;11076;47.942;11.804;2023-05-21T16:03:32;93854.94;;;25.54;35.05
21828;BME280;11076;47.942;11.804;2023-05-21T16:08:35;93846.19;;;25.70;35.26
21828;BME280;11076;47.942;11.804;2023-05-21T16:13:37;93843.03;;;25.50;35.51
21828;BME280;11076;47.942;11.804;2023-05-21T16:18:40;93833.28;;;25.32;35.57
21828;BME280;11076;47.942;11.804;2023-05-21T16:23:42;93840.00;;;25.43;36.83
21828;BME280;11076;47.942;11.804;2023-05-21T16:28:44;93843.25;;;25.28;35.57
21828;BME280;11076;47.942;11.804;2023-05-21T16:33:47;93841.97;;;24.99;35.64
21828;BME280;11076;47.942;11.804;2023-05-21T16:38:49;93841.00;;;24.69;37.16
21828;BME280;11076;47.942;11.804;2023-05-21T16:43:52;93844.34;;;24.39;37.67
21828;BME280;11076;47.942;11.804;2023-05-21T16:48:55;93851.47;;;24.09;39.01
21828;BME280;11076;47.942;11.804;2023-05-21T16:53:57;93841.13;;;23.89;39.71
21828;BME280;11076;47.942;11.804;2023-05-21T16:59:00;93840.72;;;23.73;39.28
21828;BME280;11076;47.942;11.804;2023-05-21T17:04:02;93848.22;;;23.58;40.67
21828;BME280;11076;47.942;11.804;2023-05-21T17:09:05;93842.03;;;23.44;41.08
21828;BME280;11076;47.942;11.804;2023-05-21T17:14:07;93840.06;;;23.36;40.86
21828;BME280;11076;47.942;11.804;2023-05-21T17:19:10;93837.59;;;23.26;41.69
21828;BME280;11076;47.942;11.804;2023-05-21T17:24:12;93838.84;;;23.19;42.90
21828;BME280;11076;47.942;11.804;2023-05-21T17:29:15;93837.06;;;23.46;42.77
21828;BME280;11076;47.942;11.804;2023-05-21T17:34:17;93843.25;;;23.69;42.38
21828;BME280;11076;47.942;11.804;2023-05-21T17:39:20;93847.56;;;23.61;42.16
21828;BME280;11076;47.942;11.804;2023-05-21T17:44:22;93853.56;;;22.96;42.48
21828;BME280;11076;47.942;11.804;2023-05-21T17:49:25;93869.38;;;22.21;44.92
21828;BME280;11076;47.942;11.804;2023-05-21T17:54:27;93866.75;;;21.88;45.72
21828;BME280;11076;47.942;11.804;2023-05-21T17:59:30;93873.13;;;21.97;44.98
21828;BME280;11076;47.942;11.804;2023-05-21T18:04:32;93877.22;;;21.53;45.71
21828;BME280;11076;47.942;11.804;2023-05-21T18:09:35;93875.13;;;20.98;46.13
21828;BME280;11076;47.942;11.804;2023-05-21T18:14:37;93878.06;;;20.45;47.31
21828;BME280;11076;47.942;11.804;2023-05-21T18:19:39;93863.25;;;19.94;48.37
21828;BME280;11076;47.942;11.804;2023-05-21T18:24:42;93878.88;;;19.54;49.79
21828;BME280;11076;47.942;11.804;2023-05-21T18:29:44;93868.41;;;19.13;51.08
21828;BME280;11076;47.942;11.804;2023-05-21T18:34:48;93873.69;;;18.99;51.44
21828;BME280;11076;47.942;11.804;2023-05-21T18:39:50;93874.66;;;18.79;52.23
21828;BME280;11076;47.942;11.804;2023-05-21T18:44:53;93885.03;;;18.62;53.60
21828;BME280;11076;47.942;11.804;2023-05-21T18:49:55;93889.53;;;18.32;54.33
21828;BME280;11076;47.942;11.804;2023-05-21T18:54:58;93897.28;;;17.99;55.63
21828;BME280;11076;47.942;11.804;2023-05-21T19:00:00;93906.56;;;17.67;56.88
21828;BME280;11076;47.942;11.804;2023-05-21T19:05:03;93903.63;;;17.59;58.37
21828;BME280;11076;47.942;11.804;2023-05-21T19:10:06;93908.78;;;17.40;60.25
21828;BME280;11076;47.942;11.804;2023-05-21T19:15:09;93909.63;;;17.25;61.58
21828;BME280;11076;47.942;11.804;2023-05-21T19:20:21;93916.91;;;17.04;63.67
21828;BME280;11076;47.942;11.804;2023-05-21T19:25:24;93912.03;;;17.06;66.12
21828;BME280;11076;47.942;11.804;2023-05-21T19:30:26;93916.34;;;17.12;66.94
21828;BME280;11076;47.942;11.804;2023-05-21T19:35:28;93925.00;;;17.14;67.99
21828;BME280;11076;47.942;11.804;2023-05-21T19:40:32;93929.84;;;16.97;70.33
21828;BME280;11076;47.942;11.804;2023-05-21T19:45:34;93935.75;;;16.73;71.67
21828;BME280;11076;47.942;11.804;2023-05-21T19:50:37;93933.59;;;16.70;72.44
21828;BME280;11076;47.942;11.804;2023-05-21T19:55:39;93939.53;;;16.72;72.48
21828;BME280;11076;47.942;11.804;2023-05-21T20:00:42;93940.88;;;16.64;72.81
21828;BME280;11076;47.942;11.804;2023-05-21T20:05:48;93949.22;;;16.47;73.75
21828;BME280;11076;47.942;11.804;2023-05-21T20:10:50;93950.72;;;16.23;75.02
21828;BME280;11076;47.942;11.804;2023-05-21T20:15:53;93951.25;;;16.09;76.12
21828;BME280;11076;47.942;11.804;2023-05-21T20:20:55;93952.31;;;16.08;76.02
21828;BME280;11076;47.942;11.804;2023-05-21T20:25:58;93943.41;;;16.08;76.52
21828;BME280;11076;47.942;11.804;2023-05-21T20:31:00;93934.50;;;16.02;77.23
21828;BME280;11076;47.942;11.804;2023-05-21T20:36:03;93941.94;;;15.85;78.13
21828;BME280;11076;47.942;11.804;2023-05-21T20:41:06;93939.16;;;15.69;78.74
21828;BME280;11076;47.942;11.804;2023-05-21T20:46:08;93933.69;;;15.59;80.06
21828;BME280;11076;47.942;11.804;2023-05-21T20:51:11;93941.22;;;15.52;81.76
21828;BME280;11076;47.942;11.804;2023-05-21T20:56:13;93940.19;;;15.58;81.56
21828;BME280;11076;47.942;11.804;2023-05-21T21:01:17;93942.72;;;15.38;82.68
21828;BME280;11076;47.942;11.804;2023-05-21T21:06:19;93944.22;;;15.18;83.36
21828;BME280;11076;47.942;11.804;2023-05-21T21:11:22;93947.28;;;15.00;83.75
21828;BME280;11076;47.942;11.804;2023-05-21T21:16:24;93956.84;;;14.80;85.09
21828;BME280;11076;47.942;11.804;2023-05-21T21:21:27;93956.69;;;14.65;86.08
21828;BME280;11076;47.942;11.804;2023-05-21T21:26:29;93959.31;;;14.60;86.13
21828;BME280;11076;47.942;11.804;2023-05-21T21:31:32;93956.56;;;14.55;86.78
21828;BME280;11076;47.942;11.804;2023-05-21T21:36:35;93946.44;;;14.40;86.96
21828;BME280;11076;47.942;11.804;2023-05-21T21:41:37;93953.50;;;14.19;88.11
21828;BME280;11076;47.942;11.804;2023-05-21T21:46:40;93950.56;;;13.98;89.45
21828;BME280;11076;47.942;11.804;2023-05-21T21:51:43;93945.28;;;13.86;90.88
21828;BME280;11076;47.942;11.804;2023-05-21T21:56:45;93949.78;;;13.59;91.90
21828;BME280;11076;47.942;11.804;2023-05-21T22:01:48;93961.38;;;13.42;93.05
21828;BME280;11076;47.942;11.804;2023-05-21T22:06:50;93959.25;;;13.27;93.51
21828;BME280;11076;47.942;11.804;2023-05-21T22:11:54;93962.84;;;13.16;93.32
21828;BME280;11076;47.942;11.804;2023-05-21T22:16:57;93957.31;;;13.06;93.53
21828;BME280;11076;47.942;11.804;2023-05-21T22:22:00;93955.03;;;12.98;94.36
21828;BME280;11076;47.942;11.804;2023-05-21T22:27:05;93956.03;;;12.91;94.76
21828;BME280;11076;47.942;11.804;2023-05-21T22:32:08;93947.41;;;12.89;95.80
21828;BME280;11076;47.942;11.804;2023-05-21T22:37:10;93953.00;;;12.88;96.66
21828;BME280;11076;47.942;11.804;2023-05-21T22:42:13;93951.13;;;12.88;97.11
21828;BME280;11076;47.942;11.804;2023-05-21T22:47:15;93956.81;;;12.75;96.96
21828;BME280;11076;47.942;11.804;2023-05-21T22:52:19;93960.28;;;12.59;97.91
21828;BME280;11076;47.942;11.804;2023-05-21T22:57:23;93956.00;;;12.58;98.06
21828;BME280;11076;47.942;11.804;2023-05-21T23:02:25;93956.47;;;12.54;98.67
21828;BME280;11076;47.942;11.804;2023-05-21T23:07:28;93953.31;;;12.58;100.00
21828;BME280;11076;47.942;11.804;2023-05-21T23:12:30;93956.47;;;12.54;100.00
21828;BME280;11076;47.942;11.804;2023-05-21T23:17:32;93955.47;;;12.44;100.00
21828;BME280;11076;47.942;11.804;2023-05-21T23:22:35;93958.53;;;12.36;100.00
21828;BME280;11076;47.942;11.804;2023-05-21T23:27:37;93951.22;;;12.31;100.00
21828;BME280;11076;47.942;11.804;2023-05-21T23:32:40;93959.75;;;12.28;100.00
21828;BME280;11076;47.942;11.804;2023-05-21T23:37:42;93958.50;;;12.19;100.00
21828;BME280;11076;47.942;11.804;2023-05-21T23:42:45;93967.94;;;12.09;100.00
21828;BME280;11076;47.942;11.804;2023-05-21T23:47:47;93964.69;;;12.07;100.00
21828;BME280;11076;47.942;11.804;2023-05-21T23:52:50;93961.16;;;11.90;100.00
21828;BME280;11076;47.942;11.804;2023-05-21T23:57:52;93965.34;;;11.86;100.00
